sensor_id;sensor_type;location;lat;lon;timestamp;P1;durP1;ratioP1;P2;durP2;ratioP2
1839;SDS011;920;48.944;9.148;2024-03-06T00:00:22;5.13;;;3.30;;
1839;SDS011;920;48.944;9.148;2024-03-06T00:02:49;5.73;;;3.83;;
1839;SDS011;920;48.944;9.148;2024-03-06T00:05:22;4.43;;;3.50;;
1839;SDS011;920;48.944;9.148;2024-03-06T00:07:50;4.53;;;3.47;;
1839;SDS011;920;48.944;9.148;2024-03-06T00:10:16;4.50;;;4.00;;
1839;SDS011;920;48.944;9.148;2024-03-06T00:12:44;5.33;;;3.90;;
1839;SDS011;920;48.944;9.148;2024-03-06T00:15:11;5.97;;;4.67;;
1839;SDS011;920;48.944;9.148;2024-03-06T00:17:38;4.60;;;3.87;;
1839;SDS011;920;48.944;9.148;2024-03-06T00:20:05;6.77;;;4.07;;
1839;SDS011;920;48.944;9.148;2024-03-06T00:22:34;6.60;;;3.77;;
1839;SDS011;920;48.944;9.148;2024-03-06T00:25:01;4.90;;;3.80;;
1839;SDS011;920;48.944;9.148;2024-03-06T00:27:28;7.60;;;3.37;;
1839;SDS011;920;48.944;9.148;2024-03-06T00:29:56;6.73;;;3.70;;
1839;SDS011;920;48.944;9.148;2024-03-06T00:32:23;4.40;;;3.40;;
1839;SDS011;920;48.944;9.148;2024-03-06T00:34:50;5.87;;;4.00;;
1839;SDS011;920;48.944;9.148;2024-03-06T00:37:16;5.57;;;3.83;;
1839;SDS011;920;48.944;9.148;2024-03-06T00:39:43;5.07;;;3.60;;
1839;SDS011;920;48.944;9.148;2024-03-06T00:42:10;4.43;;;3.77;;
1839;SDS011;920;48.944;9.148;2024-03-06T00:44:38;4.57;;;3.83;;
1839;SDS011;920;48.944;9.148;2024-03-06T00:47:07;4.87;;;3.57;;
1839;SDS011;920;48.944;9.148;2024-03-06T00:49:33;4.03;;;3.50;;
1839;SDS011;920;48.944;9.148;2024-03-06T00:52:00;4.43;;;3.30;;
1839;SDS011;920;48.944;9.148;2024-03-06T00:54:27;3.93;;;3.07;;
1839;SDS011;920;48.944;9.148;2024-03-06T00:56:54;3.90;;;3.03;;
1839;SDS011;920;48.944;9.148;2024-03-06T00:59:22;5.33;;;3.30;;
1839;SDS011;920;48.944;9.148;2024-03-06T01:01:49;4.70;;;3.73;;
1839;SDS011;920;48.944;9.148;2024-03-06T01:04:17;4.63;;;3.27;;
1839;SDS011;920;48.944;9.148;2024-03-06T01:06:44;4.63;;;3.47;;
1839;SDS011;920;48.944;9.148;2024-03-06T01:09:11;5.10;;;3.50;;
1839;SDS011;920;48.944;9.148;2024-03-06T01:11:38;4.00;;;3.33;;
1839;SDS011;920;48.944;9.148;2024-03-06T01:14:04;3.80;;;3.10;;
1839;SDS011;920;48.944;9.148;2024-03-06T01:16:31;5.00;;;3.23;;
1839;SDS011;920;48.944;9.148;2024-03-06T01:18:58;6.70;;;3.50;;
1839;SDS011;920;48.944;9.148;2024-03-06T01:21:26;4.10;;;3.17;;
1839;SDS011;920;48.944;9.148;2024-03-06T01:23:54;4.37;;;3.60;;
1839;SDS011;920;48.944;9.148;2024-03-06T01:26:21;3.90;;;3.00;;
1839;SDS011;920;48.944;9.148;2024-03-06T01:28:47;5.23;;;3.37;;
1839;SDS011;920;48.944;9.148;2024-03-06T01:31:14;4.37;;;3.30;;
1839;SDS011;920;48.944;9.148;2024-03-06T01:33:41;4.63;;;3.27;;
1839;SDS011;920;48.944;9.148;2024-03-06T01:36:07;4.33;;;3.40;;
1839;SDS011;920;48.944;9.148;2024-03-06T01:38:38;6.13;;;3.53;;
1839;SDS011;920;48.944;9.148;2024-03-06T01:41:04;5.17;;;3.43;;
1839;SDS011;920;48.944;9.148;2024-03-06T01:43:36;3.60;;;2.80;;
1839;SDS011;920;48.944;9.148;2024-03-06T01:46:04;4.50;;;3.50;;
1839;SDS011;920;48.944;9.148;2024-03-06T01:48:31;5.97;;;4.03;;
1839;SDS011;920;48.944;9.148;2024-03-06T01:50:59;6.00;;;4.30;;
1839;SDS011;920;48.944;9.148;2024-03-06T01:53:28;6.20;;;4.87;;
1839;SDS011;920;48.944;9.148;2024-03-06T01:55:57;6.37;;;5.07;;
1839;SDS011;920;48.944;9.148;2024-03-06T01:58:24;6.77;;;4.70;;
1839;SDS011;920;48.944;9.148;2024-03-06T02:00:51;7.00;;;5.47;;
1839;SDS011;920;48.944;9.148;2024-03-06T02:03:20;6.10;;;5.43;;
1839;SDS011;920;48.944;9.148;2024-03-06T02:05:47;7.20;;;5.40;;
1839;SDS011;920;48.944;9.148;2024-03-06T02:08:14;6.47;;;5.83;;
1839;SDS011;920;48.944;9.148;2024-03-06T02:10:41;7.17;;;5.33;;
1839;SDS011;920;48.944;9.148;2024-03-06T02:13:10;6.93;;;5.60;;
1839;SDS011;920;48.944;9.148;2024-03-06T02:15:37;5.77;;;5.17;;
1839;SDS011;920;48.944;9.148;2024-03-06T02:18:04;6.20;;;4.83;;
1839;SDS011;920;48.944;9.148;2024-03-06T02:20:33;5.57;;;4.60;;
1839;SDS011;920;48.944;9.148;2024-03-06T02:23:00;6.47;;;5.20;;
1839;SDS011;920;48.944;9.148;2024-03-06T02:25:27;5.90;;;5.30;;
1839;SDS011;920;48.944;9.148;2024-03-06T02:27:54;6.30;;;5.20;;
1839;SDS011;920;48.944;9.148;2024-03-06T02:30:21;6.10;;;4.97;;
1839;SDS011;920;48.944;9.148;2024-03-06T02:32:48;5.40;;;4.80;;
1839;SDS011;920;48.944;9.148;2024-03-06T02:35:14;5.93;;;4.93;;
1839;SDS011;920;48.944;9.148;2024-03-06T02:37:43;4.90;;;4.30;;
1839;SDS011;920;48.944;9.148;2024-03-06T02:40:10;6.77;;;5.07;;
1839;SDS011;920;48.944;9.148;2024-03-06T02:42:37;6.00;;;4.50;;
1839;SDS011;920;48.944;9.148;2024-03-06T02:45:05;6.60;;;5.57;;
1839;SDS011;920;48.944;9.148;2024-03-06T02:47:33;7.00;;;5.30;;
1839;SDS011;920;48.944;9.148;2024-03-06T02:50:00;6.00;;;4.97;;
1839;SDS011;920;48.944;9.148;2024-03-06T02:52:26;5.43;;;4.93;;
1839;SDS011;920;48.944;9.148;2024-03-06T02:54:55;6.07;;;5.07;;
1839;SDS011;920;48.944;9.148;2024-03-06T02:57:22;9.00;;;4.70;;
1839;SDS011;920;48.944;9.148;2024-03-06T02:59:49;7.23;;;5.60;;
1839;SDS011;920;48.944;9.148;2024-03-06T03:02:15;6.13;;;5.50;;
1839;SDS011;920;48.944;9.148;2024-03-06T03:04:42;6.67;;;4.80;;
1839;SDS011;920;48.944;9.148;2024-03-06T03:07:09;6.10;;;4.87;;
1839;SDS011;920;48.944;9.148;2024-03-06T03:09:35;5.67;;;4.80;;
1839;SDS011;920;48.944;9.148;2024-03-06T03:12:05;6.37;;;5.10;;
1839;SDS011;920;48.944;9.148;2024-03-06T03:14:32;7.20;;;5.30;;
1839;SDS011;920;48.944;9.148;2024-03-06T03:16:59;7.40;;;5.10;;
1839;SDS011;920;48.944;9.148;2024-03-06T03:19:26;5.93;;;4.53;;
1839;SDS011;920;48.944;9.148;2024-03-06T03:21:53;5.77;;;4.70;;
1839;SDS011;920;48.944;9.148;2024-03-06T03:24:20;5.53;;;4.80;;
1839;SDS011;920;48.944;9.148;2024-03-06T03:26:46;6.07;;;4.43;;
1839;SDS011;920;48.944;9.148;2024-03-06T03:29:15;5.47;;;4.50;;
1839;SDS011;920;48.944;9.148;2024-03-06T03:31:41;5.50;;;4.73;;
1839;SDS011;920;48.944;9.148;2024-03-06T03:34:08;6.77;;;4.87;;
1839;SDS011;920;48.944;9.148;2024-03-06T03:36:39;6.07;;;4.67;;
1839;SDS011;920;48.944;9.148;2024-03-06T03:39:06;5.27;;;4.63;;
1839;SDS011;920;48.944;9.148;2024-03-06T03:41:42;5.60;;;5.03;;
1839;SDS011;920;48.944;9.148;2024-03-06T03:44:09;7.50;;;4.30;;
1839;SDS011;920;48.944;9.148;2024-03-06T03:46:37;5.33;;;4.13;;
1839;SDS011;920;48.944;9.148;2024-03-06T03:49:04;5.90;;;4.50;;
1839;SDS011;920;48.944;9.148;2024-03-06T03:51:31;6.53;;;4.60;;
1839;SDS011;920;48.944;9.148;2024-03-06T03:53:58;5.90;;;4.00;;
1839;SDS011;920;48.944;9.148;2024-03-06T03:56:24;5.43;;;4.40;;
1839;SDS011;920;48.944;9.148;2024-03-06T03:58:51;7.17;;;4.07;;
1839;SDS011;920;48.944;9.148;2024-03-06T04:01:18;6.13;;;4.10;;
1839;SDS011;920;48.944;9.148;2024-03-06T04:03:46;4.67;;;4.03;;
1839;SDS011;920;48.944;9.148;2024-03-06T04:06:13;5.70;;;4.50;;
1839;SDS011;920;48.944;9.148;2024-03-06T04:08:40;5.80;;;4.03;;
1839;SDS011;920;48.944;9.148;2024-03-06T04:11:06;7.00;;;3.87;;
1839;SDS011;920;48.944;9.148;2024-03-06T04:13:34;4.47;;;3.73;;
1839;SDS011;920;48.944;9.148;2024-03-06T04:16:02;4.53;;;4.00;;
1839;SDS011;920;48.944;9.148;2024-03-06T04:18:30;5.37;;;4.13;;
1839;SDS011;920;48.944;9.148;2024-03-06T04:21:00;5.13;;;4.10;;
1839;SDS011;920;48.944;9.148;2024-03-06T04:23:29;5.23;;;3.97;;
1839;SDS011;920;48.944;9.148;2024-03-06T04:25:56;5.43;;;4.10;;
1839;SDS011;920;48.944;9.148;2024-03-06T04:28:23;5.07;;;3.83;;
1839;SDS011;920;48.944;9.148;2024-03-06T04:30:49;5.20;;;4.07;;
1839;SDS011;920;48.944;9.148;2024-03-06T04:33:16;4.30;;;3.67;;
1839;SDS011;920;48.944;9.148;2024-03-06T04:35:43;4.10;;;3.60;;
1839;SDS011;920;48.944;9.148;2024-03-06T04:38:11;4.90;;;3.67;;
1839;SDS011;920;48.944;9.148;2024-03-06T04:40:37;5.97;;;4.20;;
1839;SDS011;920;48.944;9.148;2024-03-06T04:43:05;6.90;;;4.40;;
1839;SDS011;920;48.944;9.148;2024-03-06T04:45:32;6.03;;;4.30;;
1839;SDS011;920;48.944;9.148;2024-03-06T04:47:59;6.07;;;4.40;;
1839;SDS011;920;48.944;9.148;2024-03-06T04:50:26;7.03;;;4.47;;
1839;SDS011;920;48.944;9.148;2024-03-06T04:52:52;4.70;;;4.00;;
1839;SDS011;920;48.944;9.148;2024-03-06T04:55:20;5.30;;;4.10;;
1839;SDS011;920;48.944;9.148;2024-03-06T04:57:47;5.00;;;3.60;;
1839;SDS011;920;48.944;9.148;2024-03-06T05:00:15;5.00;;;4.10;;
1839;SDS011;920;48.944;9.148;2024-03-06T05:02:43;4.90;;;3.90;;
1839;SDS011;920;48.944;9.148;2024-03-06T05:05:10;5.30;;;3.67;;
1839;SDS011;920;48.944;9.148;2024-03-06T05:07:40;4.30;;;3.50;;
1839;SDS011;920;48.944;9.148;2024-03-06T05:10:07;4.97;;;3.87;;
1839;SDS011;920;48.944;9.148;2024-03-06T05:12:36;4.67;;;4.10;;
1839;SDS011;920;48.944;9.148;2024-03-06T05:15:03;7.03;;;3.60;;
1839;SDS011;920;48.944;9.148;2024-03-06T05:17:30;4.33;;;3.87;;
1839;SDS011;920;48.944;9.148;2024-03-06T05:19:57;4.73;;;3.77;;
1839;SDS011;920;48.944;9.148;2024-03-06T05:22:24;4.10;;;3.50;;
1839;SDS011;920;48.944;9.148;2024-03-06T05:24:51;6.43;;;3.30;;
1839;SDS011;920;48.944;9.148;2024-03-06T05:27:19;5.87;;;3.63;;
1839;SDS011;920;48.944;9.148;2024-03-06T05:29:47;4.60;;;4.10;;
1839;SDS011;920;48.944;9.148;2024-03-06T05:32:13;4.63;;;3.43;;
1839;SDS011;920;48.944;9.148;2024-03-06T05:34:40;4.37;;;3.73;;
1839;SDS011;920;48.944;9.148;2024-03-06T05:37:07;5.40;;;4.00;;
1839;SDS011;920;48.944;9.148;2024-03-06T05:39:34;6.17;;;4.27;;
1839;SDS011;920;48.944;9.148;2024-03-06T05:42:01;4.70;;;4.00;;
1839;SDS011;920;48.944;9.148;2024-03-06T05:44:29;5.10;;;4.17;;
1839;SDS011;920;48.944;9.148;2024-03-06T05:46:58;4.53;;;3.70;;
1839;SDS011;920;48.944;9.148;2024-03-06T05:49:26;4.43;;;3.50;;
1839;SDS011;920;48.944;9.148;2024-03-06T05:51:53;6.10;;;3.90;;
1839;SDS011;920;48.944;9.148;2024-03-06T05:54:20;4.60;;;3.93;;
1839;SDS011;920;48.944;9.148;2024-03-06T05:56:47;5.60;;;3.63;;
1839;SDS011;920;48.944;9.148;2024-03-06T05:59:14;5.87;;;4.60;;
1839;SDS011;920;48.944;9.148;2024-03-06T06:01:41;5.40;;;4.17;;
1839;SDS011;920;48.944;9.148;2024-03-06T06:04:11;4.83;;;4.00;;
1839;SDS011;920;48.944;9.148;2024-03-06T06:06:38;5.20;;;4.37;;
1839;SDS011;920;48.944;9.148;2024-03-06T06:09:06;5.93;;;4.30;;
1839;SDS011;920;48.944;9.148;2024-03-06T06:11:37;6.77;;;4.60;;
1839;SDS011;920;48.944;9.148;2024-03-06T06:14:04;5.73;;;4.67;;
1839;SDS011;920;48.944;9.148;2024-03-06T06:16:34;4.70;;;4.20;;
1839;SDS011;920;48.944;9.148;2024-03-06T06:19:02;5.80;;;4.30;;
1839;SDS011;920;48.944;9.148;2024-03-06T06:21:30;5.27;;;4.50;;
1839;SDS011;920;48.944;9.148;2024-03-06T06:23:57;5.47;;;4.20;;
1839;SDS011;920;48.944;9.148;2024-03-06T06:26:24;5.87;;;4.37;;
1839;SDS011;920;48.944;9.148;2024-03-06T06:28:50;5.17;;;4.40;;
1839;SDS011;920;48.944;9.148;2024-03-06T06:31:17;5.87;;;4.87;;
1839;SDS011;920;48.944;9.148;2024-03-06T06:33:44;6.40;;;3.87;;
1839;SDS011;920;48.944;9.148;2024-03-06T06:36:12;5.30;;;4.40;;
1839;SDS011;920;48.944;9.148;2024-03-06T06:38:40;5.80;;;4.33;;
1839;SDS011;920;48.944;9.148;2024-03-06T06:41:07;5.77;;;4.80;;
1839;SDS011;920;48.944;9.148;2024-03-06T06:43:34;6.07;;;4.77;;
1839;SDS011;920;48.944;9.148;2024-03-06T06:46:01;6.57;;;4.60;;
1839;SDS011;920;48.944;9.148;2024-03-06T06:48:30;6.10;;;4.80;;
1839;SDS011;920;48.944;9.148;2024-03-06T06:50:58;6.60;;;4.80;;
1839;SDS011;920;48.944;9.148;2024-03-06T06:53:26;6.67;;;4.80;;
1839;SDS011;920;48.944;9.148;2024-03-06T06:55:54;6.47;;;5.30;;
1839;SDS011;920;48.944;9.148;2024-03-06T06:58:21;5.60;;;4.30;;
1839;SDS011;920;48.944;9.148;2024-03-06T07:00:48;4.93;;;4.20;;
1839;SDS011;920;48.944;9.148;2024-03-06T07:03:15;5.70;;;4.30;;
1839;SDS011;920;48.944;9.148;2024-03-06T07:05:41;6.07;;;4.60;;
1839;SDS011;920;48.944;9.148;2024-03-06T07:08:08;4.93;;;3.97;;
1839;SDS011;920;48.944;9.148;2024-03-06T07:10:35;5.93;;;4.77;;
1839;SDS011;920;48.944;9.148;2024-03-06T07:13:03;7.87;;;4.57;;
1839;SDS011;920;48.944;9.148;2024-03-06T07:15:31;5.10;;;4.20;;
1839;SDS011;920;48.944;9.148;2024-03-06T07:17:57;6.53;;;4.87;;
1839;SDS011;920;48.944;9.148;2024-03-06T07:20:24;6.77;;;4.60;;
1839;SDS011;920;48.944;9.148;2024-03-06T07:22:51;5.43;;;4.30;;
1839;SDS011;920;48.944;9.148;2024-03-06T07:25:18;6.47;;;4.50;;
1839;SDS011;920;48.944;9.148;2024-03-06T07:27:45;6.73;;;5.00;;
1839;SDS011;920;48.944;9.148;2024-03-06T07:30:14;5.67;;;4.37;;
1839;SDS011;920;48.944;9.148;2024-03-06T07:32:41;5.50;;;4.70;;
1839;SDS011;920;48.944;9.148;2024-03-06T07:35:08;5.80;;;4.77;;
1839;SDS011;920;48.944;9.148;2024-03-06T07:37:35;6.67;;;5.03;;
1839;SDS011;920;48.944;9.148;2024-03-06T07:40:02;7.47;;;4.97;;
1839;SDS011;920;48.944;9.148;2024-03-06T07:42:30;6.90;;;5.23;;
1839;SDS011;920;48.944;9.148;2024-03-06T07:44:57;5.70;;;4.60;;
1839;SDS011;920;48.944;9.148;2024-03-06T07:47:25;8.67;;;5.50;;
1839;SDS011;920;48.944;9.148;2024-03-06T07:49:52;5.63;;;4.40;;
1839;SDS011;920;48.944;9.148;2024-03-06T07:52:18;7.13;;;5.27;;
1839;SDS011;920;48.944;9.148;2024-03-06T07:54:45;7.67;;;5.00;;
1839;SDS011;920;48.944;9.148;2024-03-06T07:57:12;8.70;;;5.50;;
1839;SDS011;920;48.944;9.148;2024-03-06T07:59:39;5.80;;;4.50;;
1839;SDS011;920;48.944;9.148;2024-03-06T08:02:05;7.70;;;5.13;;
1839;SDS011;920;48.944;9.148;2024-03-06T08:04:34;6.50;;;5.17;;
1839;SDS011;920;48.944;9.148;2024-03-06T08:07:01;6.83;;;5.33;;
1839;SDS011;920;48.944;9.148;2024-03-06T08:09:28;6.50;;;5.27;;
1839;SDS011;920;48.944;9.148;2024-03-06T08:11:55;6.30;;;4.67;;
1839;SDS011;920;48.944;9.148;2024-03-06T08:14:22;6.80;;;5.10;;
1839;SDS011;920;48.944;9.148;2024-03-06T08:16:49;5.97;;;4.80;;
1839;SDS011;920;48.944;9.148;2024-03-06T08:19:15;6.53;;;5.63;;
1839;SDS011;920;48.944;9.148;2024-03-06T08:21:43;6.03;;;5.00;;
1839;SDS011;920;48.944;9.148;2024-03-06T08:24:11;8.40;;;4.77;;
1839;SDS011;920;48.944;9.148;2024-03-06T08:26:38;8.03;;;5.93;;
1839;SDS011;920;48.944;9.148;2024-03-06T08:29:04;6.10;;;5.50;;
1839;SDS011;920;48.944;9.148;2024-03-06T08:31:32;7.23;;;5.97;;
1839;SDS011;920;48.944;9.148;2024-03-06T08:33:58;7.20;;;5.10;;
1839;SDS011;920;48.944;9.148;2024-03-06T08:36:25;6.70;;;5.37;;
1839;SDS011;920;48.944;9.148;2024-03-06T08:38:53;9.00;;;5.20;;
1839;SDS011;920;48.944;9.148;2024-03-06T08:41:20;6.77;;;5.77;;
1839;SDS011;920;48.944;9.148;2024-03-06T08:43:47;6.50;;;5.77;;
1839;SDS011;920;48.944;9.148;2024-03-06T08:46:13;8.50;;;5.90;;
1839;SDS011;920;48.944;9.148;2024-03-06T08:48:40;7.37;;;5.50;;
1839;SDS011;920;48.944;9.148;2024-03-06T08:51:07;7.30;;;5.80;;
1839;SDS011;920;48.944;9.148;2024-03-06T08:53:36;8.13;;;5.73;;
1839;SDS011;920;48.944;9.148;2024-03-06T08:56:05;6.37;;;5.10;;
1839;SDS011;920;48.944;9.148;2024-03-06T08:58:32;8.00;;;5.57;;
1839;SDS011;920;48.944;9.148;2024-03-06T09:00:59;7.80;;;6.00;;
1839;SDS011;920;48.944;9.148;2024-03-06T09:03:25;8.87;;;5.50;;
1839;SDS011;920;48.944;9.148;2024-03-06T09:05:55;11.40;;;5.60;;
1839;SDS011;920;48.944;9.148;2024-03-06T09:08:21;8.20;;;5.60;;
1839;SDS011;920;48.944;9.148;2024-03-06T09:10:48;10.10;;;5.40;;
1839;SDS011;920;48.944;9.148;2024-03-06T09:13:16;7.10;;;5.13;;
1839;SDS011;920;48.944;9.148;2024-03-06T09:15:43;6.90;;;5.00;;
1839;SDS011;920;48.944;9.148;2024-03-06T09:18:09;5.97;;;4.30;;
1839;SDS011;920;48.944;9.148;2024-03-06T09:20:36;5.03;;;4.33;;
1839;SDS011;920;48.944;9.148;2024-03-06T09:23:03;5.50;;;4.50;;
1839;SDS011;920;48.944;9.148;2024-03-06T09:25:30;6.90;;;5.20;;
1839;SDS011;920;48.944;9.148;2024-03-06T09:27:57;6.30;;;4.63;;
1839;SDS011;920;48.944;9.148;2024-03-06T09:30:26;7.03;;;4.90;;
1839;SDS011;920;48.944;9.148;2024-03-06T09:32:54;7.17;;;4.80;;
1839;SDS011;920;48.944;9.148;2024-03-06T09:35:21;7.07;;;5.67;;
1839;SDS011;920;48.944;9.148;2024-03-06T09:37:47;7.10;;;6.27;;
1839;SDS011;920;48.944;9.148;2024-03-06T09:40:20;8.03;;;6.03;;
1839;SDS011;920;48.944;9.148;2024-03-06T09:42:48;7.77;;;6.50;;
1839;SDS011;920;48.944;9.148;2024-03-06T09:45:15;12.07;;;6.70;;
1839;SDS011;920;48.944;9.148;2024-03-06T09:47:44;7.90;;;7.10;;
1839;SDS011;920;48.944;9.148;2024-03-06T09:50:11;11.10;;;7.80;;
1839;SDS011;920;48.944;9.148;2024-03-06T09:52:40;9.10;;;7.37;;
1839;SDS011;920;48.944;9.148;2024-03-06T09:55:08;10.90;;;9.60;;
1839;SDS011;920;48.944;9.148;2024-03-06T09:57:36;10.63;;;9.53;;
1839;SDS011;920;48.944;9.148;2024-03-06T10:00:03;10.87;;;9.70;;
1839;SDS011;920;48.944;9.148;2024-03-06T10:02:37;11.20;;;9.63;;
1839;SDS011;920;48.944;9.148;2024-03-06T10:05:06;14.87;;;9.77;;
1839;SDS011;920;48.944;9.148;2024-03-06T10:07:47;11.73;;;10.27;;
1839;SDS011;920;48.944;9.148;2024-03-06T10:10:14;11.07;;;9.93;;
1839;SDS011;920;48.944;9.148;2024-03-06T10:12:41;13.97;;;10.60;;
1839;SDS011;920;48.944;9.148;2024-03-06T10:15:09;16.43;;;11.20;;
1839;SDS011;920;48.944;9.148;2024-03-06T10:17:37;13.40;;;12.00;;
1839;SDS011;920;48.944;9.148;2024-03-06T10:20:14;13.63;;;12.23;;
1839;SDS011;920;48.944;9.148;2024-03-06T10:22:48;12.93;;;11.60;;
1839;SDS011;920;48.944;9.148;2024-03-06T10:25:17;14.17;;;12.67;;
1839;SDS011;920;48.944;9.148;2024-03-06T10:27:45;14.57;;;12.30;;
1839;SDS011;920;48.944;9.148;2024-03-06T10:30:12;13.60;;;12.20;;
1839;SDS011;920;48.944;9.148;2024-03-06T10:32:41;13.80;;;12.33;;
1839;SDS011;920;48.944;9.148;2024-03-06T10:35:18;12.10;;;10.90;;
1839;SDS011;920;48.944;9.148;2024-03-06T10:37:46;13.40;;;11.87;;
1839;SDS011;920;48.944;9.148;2024-03-06T10:40:14;13.07;;;11.70;;
1839;SDS011;920;48.944;9.148;2024-03-06T10:42:42;12.20;;;11.00;;
1839;SDS011;920;48.944;9.148;2024-03-06T10:45:08;14.03;;;12.37;;
1839;SDS011;920;48.944;9.148;2024-03-06T10:47:37;13.27;;;11.87;;
1839;SDS011;920;48.944;9.148;2024-03-06T10:50:06;14.67;;;12.50;;
1839;SDS011;920;48.944;9.148;2024-03-06T10:52:37;13.00;;;11.63;;
1839;SDS011;920;48.944;9.148;2024-03-06T10:55:04;16.20;;;12.20;;
1839;SDS011;920;48.944;9.148;2024-03-06T10:57:34;13.17;;;11.33;;
1839;SDS011;920;48.944;9.148;2024-03-06T11:00:02;13.60;;;11.83;;
1839;SDS011;920;48.944;9.148;2024-03-06T11:02:30;13.50;;;11.27;;
1839;SDS011;920;48.944;9.148;2024-03-06T11:04:57;13.17;;;11.57;;
1839;SDS011;920;48.944;9.148;2024-03-06T11:07:25;14.90;;;11.40;;
1839;SDS011;920;48.944;9.148;2024-03-06T11:09:54;14.77;;;11.97;;
1839;SDS011;920;48.944;9.148;2024-03-06T11:12:35;16.00;;;12.20;;
1839;SDS011;920;48.944;9.148;2024-03-06T11:15:08;13.00;;;11.60;;
1839;SDS011;920;48.944;9.148;2024-03-06T11:17:36;13.47;;;11.20;;
1839;SDS011;920;48.944;9.148;2024-03-06T11:23:02;13.57;;;12.03;;
1839;SDS011;920;48.944;9.148;2024-03-06T11:28:35;13.90;;;12.03;;
1839;SDS011;920;48.944;9.148;2024-03-06T11:31:05;13.47;;;11.60;;
1839;SDS011;920;48.944;9.148;2024-03-06T11:33:37;13.77;;;11.77;;
1839;SDS011;920;48.944;9.148;2024-03-06T11:36:17;14.87;;;12.67;;
1839;SDS011;920;48.944;9.148;2024-03-06T11:38:52;14.50;;;10.73;;
1839;SDS011;920;48.944;9.148;2024-03-06T11:41:21;13.50;;;11.63;;
1839;SDS011;920;48.944;9.148;2024-03-06T11:43:50;13.90;;;10.67;;
1839;SDS011;920;48.944;9.148;2024-03-06T11:46:18;12.43;;;10.63;;
1839;SDS011;920;48.944;9.148;2024-03-06T11:48:51;12.93;;;11.43;;
1839;SDS011;920;48.944;9.148;2024-03-06T11:51:18;14.87;;;12.37;;
1839;SDS011;920;48.944;9.148;2024-03-06T11:53:45;14.73;;;11.83;;
1839;SDS011;920;48.944;9.148;2024-03-06T11:56:12;14.73;;;12.43;;
1839;SDS011;920;48.944;9.148;2024-03-06T11:58:40;15.43;;;12.40;;
1839;SDS011;920;48.944;9.148;2024-03-06T12:01:07;12.50;;;11.17;;
1839;SDS011;920;48.944;9.148;2024-03-06T12:03:34;13.73;;;11.10;;
1839;SDS011;920;48.944;9.148;2024-03-06T12:06:01;13.87;;;12.47;;
1839;SDS011;920;48.944;9.148;2024-03-06T12:08:28;16.07;;;11.40;;
1839;SDS011;920;48.944;9.148;2024-03-06T12:10:55;13.17;;;11.77;;
1839;SDS011;920;48.944;9.148;2024-03-06T12:13:23;17.10;;;12.00;;
1839;SDS011;920;48.944;9.148;2024-03-06T12:15:51;14.30;;;12.70;;
1839;SDS011;920;48.944;9.148;2024-03-06T12:18:18;15.03;;;12.40;;
1839;SDS011;920;48.944;9.148;2024-03-06T12:20:45;14.67;;;12.93;;
1839;SDS011;920;48.944;9.148;2024-03-06T12:23:20;14.10;;;12.47;;
1839;SDS011;920;48.944;9.148;2024-03-06T12:26:01;15.53;;;13.10;;
1839;SDS011;920;48.944;9.148;2024-03-06T12:28:28;15.20;;;12.30;;
1839;SDS011;920;48.944;9.148;2024-03-06T12:30:57;16.00;;;12.97;;
1839;SDS011;920;48.944;9.148;2024-03-06T12:33:26;14.87;;;13.37;;
1839;SDS011;920;48.944;9.148;2024-03-06T12:35:59;16.70;;;14.90;;
1839;SDS011;920;48.944;9.148;2024-03-06T12:38:28;15.23;;;13.63;;
1839;SDS011;920;48.944;9.148;2024-03-06T12:40:55;16.23;;;14.50;;
1839;SDS011;920;48.944;9.148;2024-03-06T12:43:22;17.30;;;14.50;;
1839;SDS011;920;48.944;9.148;2024-03-06T12:45:49;16.00;;;14.30;;
1839;SDS011;920;48.944;9.148;2024-03-06T12:48:21;17.97;;;15.90;;
1839;SDS011;920;48.944;9.148;2024-03-06T12:50:47;17.60;;;15.70;;
1839;SDS011;920;48.944;9.148;2024-03-06T12:53:17;16.80;;;15.10;;
1839;SDS011;920;48.944;9.148;2024-03-06T12:55:45;17.43;;;15.63;;
1839;SDS011;920;48.944;9.148;2024-03-06T12:58:12;18.63;;;16.57;;
1839;SDS011;920;48.944;9.148;2024-03-06T13:00:38;17.30;;;15.50;;
1839;SDS011;920;48.944;9.148;2024-03-06T13:03:05;17.90;;;16.10;;
1839;SDS011;920;48.944;9.148;2024-03-06T13:05:34;17.47;;;15.63;;
1839;SDS011;920;48.944;9.148;2024-03-06T13:08:01;15.87;;;14.00;;
1839;SDS011;920;48.944;9.148;2024-03-06T13:10:27;19.60;;;16.00;;
1839;SDS011;920;48.944;9.148;2024-03-06T13:12:54;17.90;;;16.00;;
1839;SDS011;920;48.944;9.148;2024-03-06T13:15:21;17.20;;;15.13;;
1839;SDS011;920;48.944;9.148;2024-03-06T13:17:48;17.33;;;14.90;;
1839;SDS011;920;48.944;9.148;2024-03-06T13:20:14;22.73;;;20.30;;
1839;SDS011;920;48.944;9.148;2024-03-06T13:22:43;21.77;;;19.47;;
1839;SDS011;920;48.944;9.148;2024-03-06T13:25:10;20.60;;;17.60;;
1839;SDS011;920;48.944;9.148;2024-03-06T13:27:37;20.13;;;17.97;;
1839;SDS011;920;48.944;9.148;2024-03-06T13:30:04;21.40;;;19.20;;
1839;SDS011;920;48.944;9.148;2024-03-06T13:32:33;18.37;;;16.30;;
1839;SDS011;920;48.944;9.148;2024-03-06T13:34:59;21.87;;;19.57;;
1839;SDS011;920;48.944;9.148;2024-03-06T13:37:26;22.07;;;19.77;;
1839;SDS011;920;48.944;9.148;2024-03-06T13:39:54;18.20;;;16.30;;
1839;SDS011;920;48.944;9.148;2024-03-06T13:42:25;17.50;;;15.70;;
1839;SDS011;920;48.944;9.148;2024-03-06T13:44:52;17.63;;;15.83;;
1839;SDS011;920;48.944;9.148;2024-03-06T13:47:19;24.70;;;22.10;;
1839;SDS011;920;48.944;9.148;2024-03-06T13:49:46;18.00;;;16.23;;
1839;SDS011;920;48.944;9.148;2024-03-06T13:52:13;17.50;;;15.70;;
1839;SDS011;920;48.944;9.148;2024-03-06T13:54:44;18.07;;;16.20;;
1839;SDS011;920;48.944;9.148;2024-03-06T13:57:12;17.43;;;15.67;;
1839;SDS011;920;48.944;9.148;2024-03-06T13:59:39;16.17;;;14.47;;
1839;SDS011;920;48.944;9.148;2024-03-06T14:02:06;15.00;;;13.10;;
1839;SDS011;920;48.944;9.148;2024-03-06T14:04:33;18.93;;;15.87;;
1839;SDS011;920;48.944;9.148;2024-03-06T14:07:00;14.67;;;13.17;;
1839;SDS011;920;48.944;9.148;2024-03-06T14:09:27;15.80;;;14.13;;
1839;SDS011;920;48.944;9.148;2024-03-06T14:11:54;16.57;;;14.13;;
1839;SDS011;920;48.944;9.148;2024-03-06T14:14:23;16.20;;;13.67;;
1839;SDS011;920;48.944;9.148;2024-03-06T14:16:50;19.07;;;13.23;;
1839;SDS011;920;48.944;9.148;2024-03-06T14:19:16;14.70;;;13.20;;
1839;SDS011;920;48.944;9.148;2024-03-06T14:21:43;16.57;;;14.77;;
1839;SDS011;920;48.944;9.148;2024-03-06T14:24:11;15.20;;;13.63;;
1839;SDS011;920;48.944;9.148;2024-03-06T14:26:38;15.40;;;13.80;;
1839;SDS011;920;48.944;9.148;2024-03-06T14:29:06;14.97;;;12.93;;
1839;SDS011;920;48.944;9.148;2024-03-06T14:31:36;13.87;;;12.30;;
1839;SDS011;920;48.944;9.148;2024-03-06T14:34:02;15.37;;;13.07;;
1839;SDS011;920;48.944;9.148;2024-03-06T14:36:29;21.17;;;18.87;;
1839;SDS011;920;48.944;9.148;2024-03-06T14:38:56;18.67;;;15.37;;
1839;SDS011;920;48.944;9.148;2024-03-06T14:41:23;21.27;;;16.90;;
1839;SDS011;920;48.944;9.148;2024-03-06T14:43:49;17.20;;;15.20;;
1839;SDS011;920;48.944;9.148;2024-03-06T14:46:16;15.77;;;13.97;;
1839;SDS011;920;48.944;9.148;2024-03-06T14:48:45;15.53;;;13.93;;
1839;SDS011;920;48.944;9.148;2024-03-06T14:51:11;18.30;;;14.20;;
1839;SDS011;920;48.944;9.148;2024-03-06T14:53:38;16.40;;;13.33;;
1839;SDS011;920;48.944;9.148;2024-03-06T14:56:05;16.40;;;13.37;;
1839;SDS011;920;48.944;9.148;2024-03-06T14:58:32;17.67;;;13.20;;
1839;SDS011;920;48.944;9.148;2024-03-06T15:01:03;16.80;;;14.00;;
1839;SDS011;920;48.944;9.148;2024-03-06T15:03:30;16.07;;;13.50;;
1839;SDS011;920;48.944;9.148;2024-03-06T15:05:58;14.90;;;13.07;;
1839;SDS011;920;48.944;9.148;2024-03-06T15:08:25;16.03;;;12.57;;
1839;SDS011;920;48.944;9.148;2024-03-06T15:10:53;16.90;;;12.80;;
1839;SDS011;920;48.944;9.148;2024-03-06T15:13:20;16.97;;;14.47;;
1839;SDS011;920;48.944;9.148;2024-03-06T15:15:48;16.70;;;13.60;;
1839;SDS011;920;48.944;9.148;2024-03-06T15:18:16;17.63;;;14.47;;
1839;SDS011;920;48.944;9.148;2024-03-06T15:20:43;17.13;;;14.50;;
1839;SDS011;920;48.944;9.148;2024-03-06T15:23:11;17.20;;;13.93;;
1839;SDS011;920;48.944;9.148;2024-03-06T15:25:40;19.23;;;14.73;;
1839;SDS011;920;48.944;9.148;2024-03-06T15:28:09;16.30;;;14.13;;